Time;durP1;ratioP1;P1;durP2;ratioP2;P2;SDS_P1;SDS_P2;PMS_P1;PMS_P2;Temp;Humidity;BMP_temperature;BMP_pressure;BME280_temperature;BME280_humidity;BME280_pressure;Samples;Min_cycle;Max_cycle;Signal;HPM_P1;HPM_P2
2023/06/29 00:00:11;;;;;;;1.27;1.17;;;18.50;99.90;;;;;;5104092;27;20559;-82
2023/06/29 00:02:41;;;;;;;1.33;0.70;;;18.50;99.90;;;;;;5101153;27;20683;-81
2023/06/29 00:05:11;;;;;;;0.70;0.70;;;18.50;99.90;;;;;;5097880;28;20221;-82
2023/06/29 00:07:40;;;;;;;3.43;1.03;;;18.50;99.90;;;;;;5101977;27;20197;-84
2023/06/29 00:10:09;;;;;;;1.90;1.53;;;18.50;99.90;;;;;;5099503;27;20188;-82
2023/06/29 00:12:40;;;;;;;22.53;1.73;;;18.50;99.90;;;;;;5098616;27;20197;-81
2023/06/29 00:15:10;;;;;;;0.50;0.50;;;18.50;99.90;;;;;;5104395;27;20280;-83
2023/06/29 00:17:39;;;;;;;25.07;1.77;;;18.60;99.90;;;;;;5098002;28;20247;-83
2023/06/29 00:20:10;;;;;;;0.77;0.70;;;18.50;99.90;;;;;;5100870;28;20205;-83
2023/06/29 00:22:40;;;;;;;1.23;0.70;;;18.50;99.90;;;;;;5107121;27;20196;-81
2023/06/29 00:25:10;;;;;;;0.70;0.70;;;18.60;99.90;;;;;;5108898;28;20192;-82
2023/06/29 00:27:40;;;;;;;1.37;1.10;;;18.60;99.80;;;;;;5095505;28;20193;-81
2023/06/29 00:30:09;;;;;;;1.60;0.67;;;18.60;99.90;;;;;;5103639;27;20192;-83
2023/06/29 00:32:37;;;;;;;0.87;0.87;;;18.60;99.90;;;;;;5099842;27;20701;-80
2023/06/29 00:35:06;;;;;;;2.03;1.63;;;18.60;99.90;;;;;;5099195;27;20638;-83
2023/06/29 00:37:34;;;;;;;1.13;1.03;;;18.60;99.90;;;;;;5099591;27;20217;-84
2023/06/29 00:40:05;;;;;;;0.90;0.90;;;18.60;99.90;;;;;;5099550;27;20614;-82
2023/06/29 00:42:34;;;;;;;1.23;1.03;;;18.70;99.90;;;;;;5093326;28;20194;-82
2023/06/29 00:45:04;;;;;;;1.80;1.57;;;18.70;99.90;;;;;;5109051;27;20949;-82
2023/06/29 00:47:34;;;;;;;2.60;1.90;;;18.70;99.80;;;;;;5102802;27;20246;-83
2023/06/29 00:50:03;;;;;;;4.97;2.47;;;18.70;99.70;;;;;;5107860;27;20767;-81
2023/06/29 00:52:32;;;;;;;2.63;1.60;;;18.80;99.70;;;;;;5096534;28;20201;-83
2023/06/29 00:55:00;;;;;;;3.93;1.53;;;18.80;99.60;;;;;;5096912;27;20657;-82
2023/06/29 00:57:30;;;;;;;3.20;2.67;;;18.80;99.40;;;;;;5098959;27;20244;-82
2023/06/29 01:00:00;;;;;;;4.27;1.50;;;18.80;99.30;;;;;;5107794;27;20193;-83
2023/06/29 01:02:31;;;;;;;1.70;1.60;;;18.80;99.30;;;;;;5090114;28;20182;-83
2023/06/29 01:05:00;;;;;;;1.20;0.87;;;18.90;99.60;;;;;;5101839;28;20309;-82
2023/06/29 01:07:33;;;;;;;1.90;1.27;;;18.90;99.10;;;;;;5105681;27;20192;-83
2023/06/29 01:10:03;;;;;;;2.53;1.93;;;19.00;99.10;;;;;;5095110;28;20182;-82
2023/06/29 01:12:33;;;;;;;2.60;0.97;;;19.00;99.00;;;;;;5098594;27;20197;-81
2023/06/29 01:15:02;;;;;;;1.30;1.10;;;19.10;98.90;;;;;;5099410;27;20188;-83
2023/06/29 01:17:34;;;;;;;1.53;1.43;;;19.10;98.90;;;;;;5091030;28;20647;-83
2023/06/29 01:20:04;;;;;;;1.37;1.27;;;19.10;98.80;;;;;;5098785;28;20276;-81
2023/06/29 01:22:36;;;;;;;1.17;1.07;;;19.10;98.80;;;;;;5093268;28;20185;-82
2023/06/29 01:25:08;;;;;;;4.27;1.63;;;19.10;98.80;;;;;;5115343;28;20214;-82
2023/06/29 01:27:43;;;;;;;2.10;1.07;;;19.10;98.80;;;;;;5097731;28;20216;-80
2023/06/29 01:30:13;;;;;;;1.40;1.20;;;19.10;98.70;;;;;;5091656;28;20186;-83
2023/06/29 01:32:41;;;;;;;2.07;1.87;;;19.10;98.60;;;;;;5098310;28;20184;-82
2023/06/29 01:35:10;;;;;;;7.00;2.33;;;19.00;98.60;;;;;;5105600;28;20198;-82
2023/06/29 01:37:45;;;;;;;1.90;1.17;;;19.10;98.50;;;;;;5097842;28;20585;-83
2023/06/29 01:40:18;;;;;;;1.57;1.47;;;19.10;98.40;;;;;;5089669;28;20185;-82
2023/06/29 01:42:49;;;;;;;1.70;1.50;;;19.10;98.30;;;;;;5106863;28;20197;-82
2023/06/29 01:45:21;;;;;;;3.37;2.40;;;19.20;98.30;;;;;;5095890;28;20189;-81
2023/06/29 01:47:50;;;;;;;1.53;0.73;;;19.20;98.10;;;;;;5092015;28;20197;-83
2023/06/29 01:50:19;;;;;;;0.90;0.90;;;19.20;97.90;;;;;;5094783;28;20204;-82
2023/06/29 01:52:47;;;;;;;1.33;0.83;;;19.20;97.80;;;;;;5108996;27;20190;-83
2023/06/29 01:55:17;;;;;;;1.40;1.30;;;19.30;97.80;;;;;;5098621;27;20196;-83
2023/06/29 01:57:45;;;;;;;2.73;1.67;;;19.30;97.70;;;;;;5096100;27;20221;-84
2023/06/29 02:00:15;;;;;;;0.90;0.90;;;19.30;97.70;;;;;;5108207;27;20188;-83
2023/06/29 02:02:43;;;;;;;2.30;1.20;;;19.30;97.60;;;;;;5093899;28;20190;-82
2023/06/29 02:05:12;;;;;;;2.93;2.23;;;19.30;97.50;;;;;;5109659;27;20278;-83
2023/06/29 02:07:40;;;;;;;2.60;1.03;;;19.30;97.40;;;;;;5100721;27;20189;-82
2023/06/29 02:10:09;;;;;;;2.70;1.57;;;19.30;97.30;;;;;;5109364;27;20284;-82
2023/06/29 02:12:41;;;;;;;0.87;0.87;;;19.30;97.30;;;;;;5105531;27;20207;-84
2023/06/29 02:15:10;;;;;;;2.03;1.93;;;19.30;97.10;;;;;;5108319;27;20193;-81
2023/06/29 02:17:38;;;;;;;1.10;0.83;;;19.30;97.10;;;;;;5103264;27;20220;-82
2023/06/29 02:20:09;;;;;;;1.63;1.17;;;19.30;97.00;;;;;;5101552;27;20220;-81
2023/06/29 02:22:37;;;;;;;5.70;2.10;;;19.30;97.00;;;;;;5101622;27;20551;-82
2023/06/29 02:25:06;;;;;;;1.30;1.10;;;19.30;97.00;;;;;;5103887;27;20211;-81
2023/06/29 02:27:36;;;;;;;1.60;0.73;;;19.30;97.00;;;;;;5100306;27;20200;-81
2023/06/29 02:30:08;;;;;;;2.57;1.10;;;19.30;97.00;;;;;;5107596;27;20656;-82
2023/06/29 02:32:36;;;;;;;1.43;1.33;;;19.30;97.00;;;;;;5107533;27;20191;-82
2023/06/29 02:35:05;;;;;;;0.80;0.80;;;19.40;97.00;;;;;;5099481;27;20221;-82
2023/06/29 02:37:34;;;;;;;5.13;1.65;;;19.40;97.00;;;;;;5096679;27;20598;-82
2023/06/29 02:40:02;;;;;;;1.60;1.50;;;19.40;96.90;;;;;;5104517;27;20651;-82
2023/06/29 02:42:31;;;;;;;4.23;1.60;;;19.40;96.90;;;;;;5103636;27;20200;-83
2023/06/29 02:44:59;;;;;;;3.78;2.20;;;19.40;96.70;;;;;;5099672;27;20193;-80
2023/06/29 02:47:29;;;;;;;3.10;1.42;;;19.30;96.60;;;;;;5097303;27;20222;-83
2023/06/29 02:49:59;;;;;;;2.77;1.80;;;19.30;96.60;;;;;;5100652;28;20195;-82
2023/06/29 02:52:28;;;;;;;2.03;1.27;;;19.30;96.70;;;;;;5101557;28;20185;-81
2023/06/29 02:54:56;;;;;;;4.90;2.77;;;19.20;96.50;;;;;;5099958;27;20197;-81
2023/06/29 02:57:24;;;;;;;2.83;2.53;;;19.30;96.60;;;;;;5096527;27;20247;-82
2023/06/29 02:59:53;;;;;;;0.82;0.82;;;19.20;96.60;;;;;;5099052;27;20626;-82
2023/06/29 03:02:21;;;;;;;2.53;2.37;;;19.20;96.60;;;;;;5104105;27;20270;-81
2023/06/29 03:04:51;;;;;;;2.00;1.80;;;19.20;96.60;;;;;;5096653;28;20193;-82
2023/06/29 03:07:20;;;;;;;1.73;1.43;;;19.20;96.60;;;;;;5095820;28;20190;-82
2023/06/29 03:09:48;;;;;;;2.73;1.97;;;19.30;96.60;;;;;;5095344;28;20198;-83
2023/06/29 03:12:16;;;;;;;3.67;2.03;;;19.30;96.50;;;;;;5100105;28;20205;-82
2023/06/29 03:14:45;;;;;;;7.13;1.37;;;19.30;96.60;;;;;;5097904;28;20271;-80
2023/06/29 03:17:14;;;;;;;1.73;1.10;;;19.30;96.60;;;;;;5097979;27;20197;-83
2023/06/29 03:19:42;;;;;;;0.90;0.87;;;19.30;96.60;;;;;;5105363;27;20225;-83
2023/06/29 03:22:12;;;;;;;5.40;1.43;;;19.30;96.60;;;;;;5098848;27;20212;-81
2023/06/29 03:24:40;;;;;;;6.27;2.37;;;19.30;96.50;;;;;;5098894;27;20194;-83
2023/06/29 03:27:09;;;;;;;4.20;2.10;;;19.40;96.60;;;;;;5094562;28;20646;-81
2023/06/29 03:29:37;;;;;;;3.70;1.80;;;19.30;96.70;;;;;;5096704;27;20202;-81
2023/06/29 03:32:06;;;;;;;2.22;1.67;;;19.30;96.70;;;;;;5100149;27;20188;-82
2023/06/29 03:34:35;;;;;;;3.77;2.03;;;19.30;96.70;;;;;;5092400;27;20186;-83
2023/06/29 03:37:03;;;;;;;2.50;1.23;;;19.30;96.80;;;;;;5090570;28;20602;-80
2023/06/29 03:39:33;;;;;;;0.77;0.77;;;19.30;96.80;;;;;;5103223;27;20213;-82
2023/06/29 03:42:01;;;;;;;4.80;2.00;;;19.30;96.70;;;;;;5097524;27;20531;-82
2023/06/29 03:44:30;;;;;;;0.77;0.77;;;19.30;96.60;;;;;;5103418;28;20499;-82
2023/06/29 03:46:58;;;;;;;11.02;3.22;;;19.30;96.60;;;;;;5091760;27;20205;-81
2023/06/29 03:49:26;;;;;;;2.27;1.03;;;19.30;96.60;;;;;;5100383;27;20194;-82
2023/06/29 03:51:55;;;;;;;2.22;1.63;;;19.30;96.50;;;;;;5092898;27;20616;-81
2023/06/29 03:54:23;;;;;;;1.43;0.60;;;19.30;96.50;;;;;;5092133;28;20197;-82
2023/06/29 03:56:53;;;;;;;3.22;1.65;;;19.30;96.50;;;;;;5101532;27;20608;-82
2023/06/29 03:59:21;;;;;;;3.23;1.93;;;19.30;96.50;;;;;;5103418;27;20225;-79
2023/06/29 04:01:50;;;;;;;1.65;1.55;;;19.30;96.60;;;;;;5102355;27;20190;-83
2023/06/29 04:04:18;;;;;;;2.45;1.55;;;19.40;96.60;;;;;;5089946;28;20221;-79
2023/06/29 04:06:46;;;;;;;8.98;1.75;;;19.30;96.60;;;;;;5092243;28;20229;-82
2023/06/29 04:09:15;;;;;;;3.43;1.83;;;19.40;96.60;;;;;;5096439;27;20252;-81
2023/06/29 04:11:43;;;;;;;1.27;0.80;;;19.40;96.50;;;;;;5099506;28;20221;-81
2023/06/29 04:14:13;;;;;;;3.90;1.43;;;19.40;96.40;;;;;;5103372;28;20186;-82
2023/06/29 04:16:42;;;;;;;5.90;2.47;;;19.40;96.40;;;;;;5098447;28;20192;-80
2023/06/29 04:19:10;;;;;;;1.13;1.10;;;19.40;96.30;;;;;;5096932;27;20230;-82
2023/06/29 04:21:40;;;;;;;5.60;1.88;;;19.50;96.30;;;;;;5106085;27;20199;-81
2023/06/29 04:24:08;;;;;;;0.75;0.75;;;19.50;96.30;;;;;;5097745;27;20193;-80
2023/06/29 04:26:38;;;;;;;1.27;1.15;;;19.40;96.30;;;;;;5097275;28;20196;-84
2023/06/29 04:29:07;;;;;;;4.05;1.80;;;19.50;96.40;;;;;;5097905;28;20193;-82
2023/06/29 04:31:36;;;;;;;1.17;1.00;;;19.50;96.30;;;;;;5093805;27;20205;-82
2023/06/29 04:34:05;;;;;;;1.02;0.80;;;19.50;96.40;;;;;;5100083;27;20217;-81
2023/06/29 04:36:33;;;;;;;2.70;2.08;;;19.50;96.50;;;;;;5098547;27;20197;-82
2023/06/29 04:39:03;;;;;;;2.13;1.53;;;19.50;96.30;;;;;;5107179;27;20686;-81
2023/06/29 04:41:32;;;;;;;1.47;1.37;;;19.50;96.20;;;;;;5093001;27;20188;-80
2023/06/29 04:44:01;;;;;;;1.55;1.45;;;19.50;96.30;;;;;;5099482;28;20196;-81
2023/06/29 04:46:30;;;;;;;0.93;0.63;;;19.60;96.30;;;;;;5096056;27;20192;-81
2023/06/29 04:49:05;;;;;;;4.67;0.90;;;19.60;96.30;;;;;;5093670;27;20201;-83
2023/06/29 04:51:35;;;;;;;0.88;0.73;;;19.70;96.40;;;;;;5098522;27;20192;-84
2023/06/29 04:54:05;;;;;;;1.52;1.30;;;19.70;96.50;;;;;;5100319;27;20193;-81
2023/06/29 04:56:33;;;;;;;2.30;1.60;;;19.70;96.50;;;;;;5097254;27;20610;-82
2023/06/29 04:59:02;;;;;;;1.60;1.35;;;19.70;96.40;;;;;;5098415;27;20383;-83
2023/06/29 05:01:30;;;;;;;2.63;1.70;;;19.70;96.30;;;;;;5091593;27;20208;-81
2023/06/29 05:04:00;;;;;;;1.42;1.33;;;19.70;96.30;;;;;;5101252;27;20193;-82
2023/06/29 05:06:30;;;;;;;1.83;1.67;;;19.70;96.30;;;;;;5092166;27;20225;-82
2023/06/29 05:08:58;;;;;;;3.03;1.95;;;19.70;96.10;;;;;;5095330;27;20198;-82
2023/06/29 05:11:27;;;;;;;1.38;1.27;;;19.80;96.10;;;;;;5094170;28;20202;-79
2023/06/29 05:13:55;;;;;;;4.70;2.20;;;19.80;96.00;;;;;;5100395;27;20442;-81
2023/06/29 05:16:23;;;;;;;5.25;1.42;;;19.90;96.30;;;;;;5098177;28;20668;-81
2023/06/29 05:18:52;;;;;;;5.10;2.35;;;19.90;96.20;;;;;;5091467;28;20197;-82
2023/06/29 05:21:22;;;;;;;2.05;1.33;;;19.90;96.10;;;;;;5099363;28;20603;-81
2023/06/29 05:23:51;;;;;;;1.17;1.02;;;20.00;96.10;;;;;;5120397;28;20188;-82
2023/06/29 05:26:20;;;;;;;1.88;1.10;;;20.10;96.00;;;;;;5097356;28;20201;-81
2023/06/29 05:28:48;;;;;;;1.15;0.88;;;20.10;96.00;;;;;;5094340;28;20197;-81
2023/06/29 05:31:32;;;;;;;1.38;1.15;;;20.20;95.90;;;;;;5093748;28;20185;-81
2023/06/29 05:34:00;;;;;;;2.05;0.93;;;20.20;95.50;;;;;;5107094;28;20210;-82
2023/06/29 05:36:30;;;;;;;2.78;2.00;;;20.30;95.40;;;;;;5108186;28;20285;-83
2023/06/29 05:38:59;;;;;;;2.22;1.88;;;20.30;95.10;;;;;;5095493;28;20186;-86
2023/06/29 05:41:27;;;;;;;1.80;1.65;;;20.30;94.90;;;;;;5096790;28;20664;-83
2023/06/29 05:43:56;;;;;;;2.47;2.15;;;20.40;94.80;;;;;;5099382;28;20635;-83
2023/06/29 05:46:24;;;;;;;2.28;1.33;;;20.40;94.80;;;;;;5091404;28;20214;-80
2023/06/29 05:48:53;;;;;;;0.88;0.88;;;20.50;94.90;;;;;;5094619;28;20200;-82
2023/06/29 05:51:21;;;;;;;0.47;0.47;;;20.50;94.80;;;;;;5089090;28;20189;-79
2023/06/29 05:53:51;;;;;;;1.70;1.60;;;20.60;94.80;;;;;;5097870;28;20193;-79
2023/06/29 05:56:19;;;;;;;1.45;0.82;;;20.60;94.80;;;;;;5090291;28;20225;-79
2023/06/29 05:58:48;;;;;;;0.98;0.63;;;20.60;94.70;;;;;;5088042;28;20211;-80
2023/06/29 06:01:16;;;;;;;2.42;0.75;;;20.70;94.70;;;;;;5094361;28;20232;-84
2023/06/29 06:03:46;;;;;;;0.70;0.70;;;20.70;94.70;;;;;;5096363;28;20190;-83
2023/06/29 06:06:15;;;;;;;10.85;1.58;;;20.70;94.40;;;;;;5085942;28;20229;-83
2023/06/29 06:08:43;;;;;;;0.85;0.85;;;20.80;94.30;;;;;;5089416;28;20654;-82
2023/06/29 06:11:13;;;;;;;2.17;1.85;;;20.80;94.20;;;;;;5092320;28;20197;-81
2023/06/29 06:13:41;;;;;;;1.55;1.15;;;20.90;94.30;;;;;;5093005;28;20201;-83
2023/06/29 06:16:10;;;;;;;0.73;0.68;;;20.90;94.30;;;;;;5094540;28;21059;-83
2023/06/29 06:18:38;;;;;;;2.35;1.88;;;21.00;94.20;;;;;;5101165;28;20201;-84
2023/06/29 06:21:06;;;;;;;2.58;1.50;;;21.00;94.10;;;;;;5097401;27;20216;-84
2023/06/29 06:23:35;;;;;;;1.20;0.83;;;21.10;94.10;;;;;;5095756;28;20476;-84
2023/06/29 06:26:03;;;;;;;1.67;0.80;;;21.20;94.20;;;;;;5093282;28;20190;-83
2023/06/29 06:28:33;;;;;;;0.57;0.50;;;21.20;94.10;;;;;;5098221;28;20201;-83
2023/06/29 06:31:01;;;;;;;1.67;1.23;;;21.20;93.50;;;;;;5093497;27;20281;-83
2023/06/29 06:33:30;;;;;;;1.35;0.93;;;21.30;93.60;;;;;;5088873;28;20760;-83
2023/06/29 06:35:59;;;;;;;0.55;0.52;;;21.40;92.70;;;;;;5097410;28;20216;-83
2023/06/29 06:38:28;;;;;;;1.73;1.20;;;21.40;92.70;;;;;;5099492;28;20193;-82
2023/06/29 06:41:16;;;;;;;5.40;1.20;;;21.50;92.90;;;;;;5099145;27;20245;-83
2023/06/29 06:43:45;;;;;;;1.95;1.15;;;21.60;92.70;;;;;;5099898;28;20194;-83
2023/06/29 06:46:14;;;;;;;3.42;0.80;;;21.70;92.40;;;;;;5093794;28;20197;-81
2023/06/29 06:48:42;;;;;;;0.75;0.75;;;21.70;92.10;;;;;;5101087;27;20213;-81
2023/06/29 06:51:11;;;;;;;2.58;1.27;;;21.80;92.30;;;;;;5096200;27;20212;-81
2023/06/29 06:53:40;;;;;;;0.80;0.80;;;21.90;92.20;;;;;;5103769;27;20654;-82
2023/06/29 06:56:08;;;;;;;0.40;0.40;;;22.00;91.90;;;;;;5102062;28;20209;-81
2023/06/29 06:58:36;;;;;;;0.65;0.65;;;22.00;91.90;;;;;;5100684;28;20208;-80
2023/06/29 07:01:07;;;;;;;0.60;0.60;;;22.10;91.90;;;;;;5109744;27;20695;-84
2023/06/29 07:03:35;;;;;;;1.02;0.60;;;22.20;92.00;;;;;;5092085;28;20196;-84
2023/06/29 07:06:04;;;;;;;0.57;0.57;;;22.30;91.90;;;;;;5090531;28;20290;-82
2023/06/29 07:08:35;;;;;;;0.60;0.60;;;22.30;91.70;;;;;;5093624;27;20189;-82
2023/06/29 07:11:04;;;;;;;0.98;0.80;;;22.40;91.60;;;;;;5098020;28;20254;-81
2023/06/29 07:13:33;;;;;;;0.88;0.75;;;22.40;90.80;;;;;;5096899;27;20205;-83
2023/06/29 07:16:01;;;;;;;0.65;0.65;;;22.50;90.90;;;;;;5091036;28;20689;-84
2023/06/29 07:18:31;;;;;;;1.58;0.77;;;22.50;90.30;;;;;;5098372;28;20200;-82
2023/06/29 07:21:00;;;;;;;2.15;1.80;;;22.50;90.30;;;;;;5105175;28;20249;-84
2023/06/29 07:23:31;;;;;;;1.02;0.88;;;22.50;90.00;;;;;;5104576;28;20565;-82
2023/06/29 07:26:02;;;;;;;0.65;0.50;;;22.60;89.40;;;;;;5101676;28;20193;-82
2023/06/29 07:28:30;;;;;;;1.60;1.50;;;22.60;90.00;;;;;;5097807;28;20186;-81
2023/06/29 07:30:59;;;;;;;0.30;0.30;;;22.60;89.40;;;;;;5093861;28;20684;-82
2023/06/29 07:33:30;;;;;;;1.98;1.25;;;22.70;89.10;;;;;;5099528;28;20204;-82
2023/06/29 07:36:04;;;;;;;0.45;0.45;;;22.70;89.40;;;;;;5104299;27;20185;-83
2023/06/29 07:38:32;;;;;;;4.25;1.02;;;22.70;89.40;;;;;;5104034;27;20192;-82
2023/06/29 07:41:03;;;;;;;1.58;1.15;;;22.70;88.70;;;;;;5100673;28;20564;-83
2023/06/29 07:43:31;;;;;;;0.68;0.68;;;22.70;87.90;;;;;;5092868;28;20255;-82
2023/06/29 07:46:01;;;;;;;0.80;0.80;;;22.80;88.00;;;;;;5095231;28;20220;-84
2023/06/29 07:48:30;;;;;;;1.50;0.85;;;22.80;87.90;;;;;;5097616;27;20225;-80
2023/06/29 07:50:59;;;;;;;0.82;0.82;;;22.90;87.20;;;;;;5090597;28;20198;-83
2023/06/29 07:53:29;;;;;;;0.75;0.57;;;22.90;87.90;;;;;;5088472;28;20194;-81
2023/06/29 07:55:57;;;;;;;13.20;1.38;;;22.90;87.20;;;;;;5092888;28;20193;-84
2023/06/29 07:58:25;;;;;;;0.95;0.63;;;23.00;87.00;;;;;;5093319;27;20712;-82
2023/06/29 08:00:57;;;;;;;0.65;0.55;;;23.00;86.60;;;;;;5098362;28;20208;-81
2023/06/29 08:03:25;;;;;;;1.30;1.20;;;23.10;86.20;;;;;;5096263;28;20197;-82
2023/06/29 08:05:54;;;;;;;0.50;0.50;;;23.00;84.80;;;;;;5099247;28;20222;-83
2023/06/29 08:08:28;;;;;;;0.57;0.57;;;23.10;84.20;;;;;;5091137;28;20198;-82
2023/06/29 08:10:59;;;;;;;0.85;0.73;;;23.10;83.30;;;;;;5100404;27;20233;-80
2023/06/29 08:13:27;;;;;;;1.75;0.75;;;23.20;83.80;;;;;;5099336;27;20189;-81
2023/06/29 08:15:57;;;;;;;1.30;0.75;;;23.20;83.90;;;;;;5098098;27;20560;-81
2023/06/29 08:18:25;;;;;;;1.25;0.73;;;23.20;82.00;;;;;;5099751;28;20234;-80
2023/06/29 08:20:54;;;;;;;0.52;0.52;;;23.30;82.70;;;;;;5093769;28;20213;-83
2023/06/29 08:23:23;;;;;;;1.27;0.60;;;23.30;83.50;;;;;;5099492;27;20189;-80
2023/06/29 08:25:52;;;;;;;1.80;1.70;;;23.30;81.60;;;;;;5112512;27;20194;-80
2023/06/29 08:28:21;;;;;;;0.68;0.60;;;23.40;81.60;;;;;;5096361;28;20199;-80
2023/06/29 08:30:49;;;;;;;0.57;0.50;;;23.50;81.10;;;;;;5091278;28;20209;-82
2023/06/29 08:33:17;;;;;;;1.08;0.70;;;23.50;80.90;;;;;;5093440;28;20203;-80
2023/06/29 08:35:46;;;;;;;0.40;0.40;;;23.60;78.70;;;;;;5095249;28;20201;-81
2023/06/29 08:38:14;;;;;;;0.43;0.43;;;23.60;79.70;;;;;;5091027;28;20197;-82
2023/06/29 08:40:46;;;;;;;1.05;0.57;;;23.70;80.30;;;;;;5092582;27;20198;-80
2023/06/29 08:43:17;;;;;;;0.40;0.30;;;23.80;79.10;;;;;;5096588;28;20193;-81
2023/06/29 08:45:46;;;;;;;0.40;0.40;;;23.80;78.10;;;;;;5106215;27;20215;-82
2023/06/29 08:48:19;;;;;;;0.47;0.38;;;23.90;77.80;;;;;;5093002;28;20193;-81
2023/06/29 08:50:54;;;;;;;0.40;0.40;;;24.00;77.90;;;;;;5095923;27;20194;-81
2023/06/29 08:53:23;;;;;;;2.05;0.50;;;24.00;77.90;;;;;;5099666;27;20187;-81
2023/06/29 08:55:53;;;;;;;0.50;0.50;;;24.00;75.30;;;;;;5092365;27;20194;-82
2023/06/29 08:58:22;;;;;;;0.22;0.22;;;24.00;73.10;;;;;;5092216;28;20190;-82
2023/06/29 09:00:53;;;;;;;1.10;0.50;;;24.10;72.60;;;;;;5100454;28;20272;-82
2023/06/29 09:03:24;;;;;;;0.45;0.45;;;24.20;73.70;;;;;;5094101;28;20272;-80
2023/06/29 09:05:54;;;;;;;0.52;0.50;;;24.20;73.20;;;;;;5104369;28;20220;-82
2023/06/29 09:08:23;;;;;;;0.32;0.32;;;24.30;74.20;;;;;;5103422;27;20197;-80
2023/06/29 09:10:52;;;;;;;0.30;0.30;;;24.40;74.30;;;;;;5096087;28;20193;-80
2023/06/29 09:13:25;;;;;;;0.43;0.38;;;24.40;73.50;;;;;;5104896;27;20323;-81
2023/06/29 09:15:55;;;;;;;4.97;0.63;;;24.50;74.50;;;;;;5094355;27;20356;-81
2023/06/29 09:18:25;;;;;;;0.43;0.30;;;24.60;73.10;;;;;;5101887;28;20246;-80
2023/06/29 09:20:57;;;;;;;0.45;0.45;;;24.60;73.00;;;;;;5096008;28;20192;-81
2023/06/29 09:23:27;;;;;;;0.30;0.30;;;24.70;72.30;;;;;;5093194;28;20208;-80
2023/06/29 09:25:56;;;;;;;0.20;0.20;;;24.70;71.20;;;;;;5098348;28;20978;-81
2023/06/29 09:28:27;;;;;;;0.35;0.35;;;24.70;67.90;;;;;;5095764;28;20615;-81
2023/06/29 09:30:55;;;;;;;0.38;0.38;;;24.80;69.00;;;;;;5093536;28;20564;-80
2023/06/29 09:33:26;;;;;;;1.75;0.50;;;24.80;69.60;;;;;;5100116;28;20225;-81
2023/06/29 09:35:54;;;;;;;0.32;0.32;;;24.90;69.30;;;;;;5103511;27;20266;-82
2023/06/29 09:38:23;;;;;;;0.20;0.20;;;25.00;69.60;;;;;;5099883;27;20567;-82
2023/06/29 09:40:52;;;;;;;0.75;0.65;;;25.00;67.70;;;;;;5100993;28;20700;-81
2023/06/29 09:43:21;;;;;;;0.40;0.40;;;25.20;67.50;;;;;;5091169;28;20312;-82
2023/06/29 09:45:53;;;;;;;1.08;0.57;;;25.20;64.40;;;;;;5096402;28;20233;-80
2023/06/29 09:48:22;;;;;;;0.30;0.30;;;25.20;65.90;;;;;;5094378;28;20194;-80
2023/06/29 09:50:55;;;;;;;0.10;0.10;;;25.40;67.30;;;;;;5112920;28;20564;-81
2023/06/29 09:53:31;;;;;;;0.32;0.32;;;25.40;67.30;;;;;;5097949;28;20658;-80
2023/06/29 09:56:01;;;;;;;0.88;0.30;;;25.50;66.80;;;;;;5096454;28;20200;-80
2023/06/29 09:58:31;;;;;;;0.77;0.68;;;25.50;66.80;;;;;;5106130;28;20665;-81
2023/06/29 10:01:01;;;;;;;0.25;0.25;;;25.70;66.90;;;;;;5106487;28;20201;-80
2023/06/29 10:03:31;;;;;;;0.30;0.30;;;25.70;66.50;;;;;;5102951;28;20216;-80
2023/06/29 10:06:07;;;;;;;1.95;0.30;;;25.70;66.60;;;;;;5098925;28;20253;-80
2023/06/29 10:08:37;;;;;;;0.20;0.20;;;25.70;66.70;;;;;;5097011;28;20216;-82
2023/06/29 10:11:06;;;;;;;0.30;0.30;;;25.80;66.30;;;;;;5092209;28;20204;-81
2023/06/29 10:13:41;;;;;;;0.40;0.40;;;25.90;63.50;;;;;;5098109;28;20216;-81
2023/06/29 10:16:13;;;;;;;0.57;0.50;;;25.90;62.80;;;;;;5097943;27;20189;-82
2023/06/29 10:18:45;;;;;;;0.28;0.28;;;25.80;63.00;;;;;;5101610;27;22168;-81
2023/06/29 10:21:14;;;;;;;0.30;0.30;;;25.90;62.00;;;;;;5096844;27;20189;-80
2023/06/29 10:23:44;;;;;;;0.50;0.50;;;25.90;62.30;;;;;;5095826;27;20222;-81
2023/06/29 10:26:13;;;;;;;0.30;0.30;;;26.00;61.30;;;;;;5097064;27;20185;-81
2023/06/29 10:28:42;;;;;;;0.30;0.30;;;26.10;61.90;;;;;;5110075;27;20740;-81
2023/06/29 10:31:12;;;;;;;0.30;0.20;;;26.20;62.20;;;;;;5088952;27;20250;-79
2023/06/29 10:33:47;;;;;;;0.52;0.52;;;26.20;61.50;;;;;;5103717;28;20745;-81
2023/06/29 10:36:17;;;;;;;0.25;0.25;;;26.20;62.00;;;;;;5094076;27;20661;-80
2023/06/29 10:38:46;;;;;;;0.30;0.30;;;26.20;61.60;;;;;;5089951;27;20423;-80
2023/06/29 10:41:27;;;;;;;0.45;0.45;;;26.20;60.10;;;;;;5093786;27;20190;-80
2023/06/29 10:43:57;;;;;;;0.30;0.30;;;26.20;60.20;;;;;;5098133;27;20212;-80
2023/06/29 10:46:46;;;;;;;0.25;0.25;;;26.30;60.80;;;;;;5107345;27;20192;-81
2023/06/29 10:49:22;;;;;;;1.45;0.45;;;26.40;60.90;;;;;;5098586;28;20668;-81
2023/06/29 10:51:51;;;;;;;1.13;0.40;;;26.50;61.50;;;;;;5096885;28;20290;-80
2023/06/29 10:54:22;;;;;;;0.20;0.20;;;26.40;60.70;;;;;;5098356;27;20197;-80
2023/06/29 10:57:01;;;;;;;0.20;0.20;;;26.50;60.20;;;;;;5114307;27;20193;-79
2023/06/29 10:59:31;;;;;;;0.45;0.45;;;26.60;60.90;;;;;;5113112;27;20188;-82
2023/06/29 11:02:03;;;;;;;0.30;0.30;;;26.60;60.80;;;;;;5107690;27;21079;-81
2023/06/29 11:04:32;;;;;;;0.40;0.30;;;26.60;60.90;;;;;;5098158;27;20199;-81
2023/06/29 11:07:06;;;;;;;0.30;0.30;;;26.70;61.10;;;;;;5100765;27;20702;-81
2023/06/29 11:09:35;;;;;;;0.57;0.40;;;26.80;61.00;;;;;;5092980;28;20707;-82
2023/06/29 11:12:05;;;;;;;0.30;0.22;;;26.80;59.60;;;;;;5100475;27;20200;-80
2023/06/29 11:14:38;;;;;;;0.60;0.60;;;26.80;59.70;;;;;;5105752;28;20194;-81
2023/06/29 11:17:09;;;;;;;0.30;0.30;;;26.80;59.80;;;;;;5098306;27;20209;-82
2023/06/29 11:19:45;;;;;;;0.30;0.30;;;26.90;60.40;;;;;;5108579;27;20204;-81
2023/06/29 11:22:13;;;;;;;0.20;0.20;;;26.90;59.80;;;;;;5095117;28;20281;-80
2023/06/29 11:24:42;;;;;;;1.13;0.93;;;27.00;59.50;;;;;;5097836;27;20654;-81
2023/06/29 11:27:11;;;;;;;0.43;0.43;;;27.10;59.60;;;;;;5104709;27;20194;-81
2023/06/29 11:29:39;;;;;;;0.68;0.68;;;27.10;59.20;;;;;;5108935;27;20651;-81
2023/06/29 11:32:13;;;;;;;0.22;0.22;;;27.10;59.70;;;;;;5094892;28;20277;-82
2023/06/29 11:34:41;;;;;;;0.93;0.50;;;27.00;59.50;;;;;;5114949;27;20186;-82
2023/06/29 11:37:10;;;;;;;1.20;0.65;;;27.00;58.70;;;;;;5092564;28;20205;-81
2023/06/29 11:39:59;;;;;;;0.95;0.43;;;26.90;59.30;;;;;;5108872;27;20284;-80
2023/06/29 11:42:27;;;;;;;2.92;0.47;;;26.90;59.10;;;;;;5094105;27;20193;-78
2023/06/29 11:45:03;;;;;;;0.40;0.40;;;26.90;58.70;;;;;;5092754;27;20201;-79
2023/06/29 11:47:33;;;;;;;0.40;0.40;;;27.00;58.70;;;;;;5092090;27;20225;-78
2023/06/29 11:50:04;;;;;;;0.65;0.65;;;27.10;57.60;;;;;;5093300;27;20184;-78
2023/06/29 11:52:32;;;;;;;0.30;0.30;;;27.20;57.10;;;;;;5099923;27;20275;-77
2023/06/29 11:55:02;;;;;;;0.40;0.25;;;27.20;56.70;;;;;;5091692;27;20217;-78
2023/06/29 11:57:32;;;;;;;0.20;0.20;;;27.30;57.30;;;;;;5099465;27;20193;-78
2023/06/29 12:00:01;;;;;;;0.30;0.30;;;27.30;57.90;;;;;;5097929;27;20197;-78
2023/06/29 12:02:31;;;;;;;0.40;0.40;;;27.40;57.70;;;;;;5094902;27;20200;-78
2023/06/29 12:05:03;;;;;;;1.92;1.15;;;27.30;55.20;;;;;;5094962;28;20186;-78
2023/06/29 12:07:39;;;;;;;0.20;0.20;;;27.30;55.70;;;;;;5094988;27;20247;-79
2023/06/29 12:10:09;;;;;;;0.35;0.35;;;27.40;55.90;;;;;;5094531;27;20199;-79
2023/06/29 12:12:38;;;;;;;0.20;0.20;;;27.40;56.20;;;;;;5098601;27;20207;-79
2023/06/29 12:15:17;;;;;;;0.22;0.22;;;27.50;56.60;;;;;;5093451;27;20186;-79
2023/06/29 12:17:50;;;;;;;0.20;0.20;;;27.60;55.50;;;;;;5091581;28;20190;-79
2023/06/29 12:20:22;;;;;;;0.30;0.30;;;27.60;52.20;;;;;;5088695;28;20204;-78
2023/06/29 12:22:53;;;;;;;0.40;0.40;;;27.60;52.90;;;;;;5099882;27;20197;-79
2023/06/29 12:25:22;;;;;;;0.32;0.32;;;27.70;53.80;;;;;;5098670;27;20189;-80
2023/06/29 12:27:51;;;;;;;0.20;0.20;;;27.60;53.00;;;;;;5098175;28;20192;-79
2023/06/29 12:30:21;;;;;;;0.30;0.30;;;27.60;53.60;;;;;;5096901;28;20189;-78
2023/06/29 12:32:54;;;;;;;0.52;0.52;;;27.60;54.10;;;;;;5098376;27;20267;-79
2023/06/29 12:35:23;;;;;;;0.20;0.20;;;27.60;53.60;;;;;;5096618;27;20426;-77
2023/06/29 12:37:53;;;;;;;0.90;0.90;;;27.70;53.80;;;;;;5095651;27;20189;-78
2023/06/29 12:40:21;;;;;;;0.20;0.20;;;27.80;52.50;;;;;;5096498;28;20652;-78
2023/06/29 12:42:51;;;;;;;0.30;0.20;;;28.00;51.90;;;;;;5099673;28;20190;-77
2023/06/29 12:45:19;;;;;;;1.23;0.25;;;28.20;51.90;;;;;;5101123;27;20254;-78
2023/06/29 12:47:48;;;;;;;0.20;0.20;;;28.30;52.40;;;;;;5101419;28;20193;-79
2023/06/29 12:50:18;;;;;;;0.30;0.30;;;28.40;52.70;;;;;;5096716;27;20276;-78
2023/06/29 12:52:48;;;;;;;0.30;0.30;;;28.60;53.00;;;;;;5099728;28;20190;-79
2023/06/29 12:55:16;;;;;;;0.20;0.20;;;28.70;52.20;;;;;;5100423;27;20198;-78
2023/06/29 12:57:45;;;;;;;0.20;0.20;;;28.80;52.40;;;;;;5101768;27;20188;-79